Worms, Nebraska
Current Conditions -  °F | °C
As of 9:53 PM on Saturday 25 Oct 2014 (Local Time) from KGRI Reporting Station
Clear Clear  
Wind Chill: 58°   Ceiling: Unl
Heat Index: 58°   Visibility: 10mi
Dew Point: 44°   Wind: 8mph
Humidity: 60%   Direction: 100°E
Pressure: 30"   Gusts: NA
Location:  41.091°N, 98.3628°W
Report Text: KGRI 260253Z AUTO 10007KT 10SM CLR 14/07 A3000 RMK AO2 SLP157 T01440067 58006
Loading
Personal Weather Stations






























Interactive Weather Map
Tropical Storm Tracking
New forecast layout! Learn more

10-Day Weather Forecast

Advertisements
Track Severe Weather on mobile